createdAt,value
2023-05-18T00:00:03.920Z,16.27
2023-05-18T00:01:07.702Z,15.60
2023-05-18T00:02:11.479Z,14.50
2023-05-18T00:03:15.308Z,16.08
2023-05-18T00:04:19.262Z,15.40
2023-05-18T00:05:23.008Z,15.32
2023-05-18T00:06:26.805Z,16.42
2023-05-18T00:07:30.459Z,15.50
2023-05-18T00:08:34.167Z,15.27
2023-05-18T00:09:38.315Z,15.05
2023-05-18T00:10:42.078Z,15.48
2023-05-18T00:11:45.800Z,15.13
2023-05-18T00:12:49.458Z,14.60
2023-05-18T00:13:53.171Z,15.52
2023-05-18T00:14:56.840Z,15.02
2023-05-18T00:16:02.415Z,15.82
2023-05-18T00:17:06.377Z,15.13
2023-05-18T00:18:10.140Z,15.33
2023-05-18T00:19:14.003Z,14.93
2023-05-18T00:20:17.802Z,15.18
2023-05-18T00:21:21.549Z,14.98
2023-05-18T00:22:25.266Z,14.48
2023-05-18T00:23:29.126Z,15.67
2023-05-18T00:24:33.677Z,14.32
2023-05-18T00:25:38.274Z,14.77
2023-05-18T00:26:43.432Z,14.95
2023-05-18T00:27:47.136Z,15.70
2023-05-18T00:28:50.899Z,15.53
2023-05-18T00:29:54.593Z,15.20
2023-05-18T00:30:58.491Z,15.68
2023-05-18T00:32:04.056Z,14.18
2023-05-18T00:33:07.965Z,14.10
2023-05-18T00:34:12.280Z,14.57
2023-05-18T00:35:16.148Z,15.40
2023-05-18T00:36:19.831Z,15.68
2023-05-18T00:37:23.500Z,15.63
2023-05-18T00:38:27.315Z,15.02
2023-05-18T00:39:31.081Z,14.80
2023-05-18T00:40:34.906Z,14.05
2023-05-18T00:41:38.597Z,14.18
2023-05-18T00:42:42.279Z,14.15
2023-05-18T00:43:45.992Z,14.35
2023-05-18T00:44:49.648Z,15.07
2023-05-18T00:45:53.553Z,15.32
2023-05-18T00:46:57.245Z,15.13
2023-05-18T00:48:02.648Z,14.93
2023-05-18T00:49:06.545Z,14.70
2023-05-18T00:50:11.339Z,14.70
2023-05-18T00:51:15.261Z,14.60
2023-05-18T00:52:19.023Z,15.32
2023-05-18T00:53:23.183Z,14.77
2023-05-18T00:54:27.554Z,14.75
2023-05-18T00:55:31.609Z,15.10
2023-05-18T00:56:35.751Z,14.95
2023-05-18T00:57:39.776Z,14.52
2023-05-18T00:58:44.416Z,14.40
2023-05-18T00:59:48.639Z,14.88
2023-05-18T01:00:53.708Z,14.53
2023-05-18T01:01:57.968Z,14.75
2023-05-18T01:03:03.737Z,15.18
2023-05-18T01:04:07.636Z,15.35
2023-05-18T01:05:11.740Z,15.25
2023-05-18T01:06:15.431Z,15.10
2023-05-18T01:07:19.330Z,14.75
2023-05-18T01:08:23.536Z,14.75
2023-05-18T01:09:27.311Z,14.63
2023-05-18T01:10:37.745Z,14.23
2023-05-18T01:11:52.740Z,14.43
2023-05-18T01:13:00.621Z,14.88
2023-05-18T01:14:10.566Z,14.27
2023-05-18T01:15:17.560Z,14.40
2023-05-18T01:16:26.876Z,14.18
2023-05-18T01:17:38.167Z,14.43
2023-05-18T01:18:51.991Z,14.15
2023-05-18T01:20:18.539Z,15.02
2023-05-18T01:21:39.448Z,13.70
2023-05-18T01:23:11.206Z,14.15
2023-05-18T01:24:27.569Z,14.03
2023-05-18T01:25:36.716Z,14.00
2023-05-18T01:26:44.540Z,14.00
2023-05-18T01:27:49.750Z,14.45
2023-05-18T01:28:55.272Z,13.75
2023-05-18T01:29:59.852Z,14.57
2023-05-18T01:31:04.621Z,15.00
2023-05-18T01:32:09.299Z,13.98
2023-05-18T01:33:14.153Z,14.40
2023-05-18T01:34:18.615Z,14.70
2023-05-18T01:35:22.347Z,13.97
2023-05-18T01:36:26.140Z,13.60
2023-05-18T01:37:30.132Z,13.73
2023-05-18T01:38:34.271Z,13.88
2023-05-18T01:39:38.126Z,14.43
2023-05-18T01:40:48.968Z,14.23
2023-05-18T01:41:59.950Z,14.45
2023-05-18T01:43:11.020Z,14.63
2023-05-18T01:44:20.357Z,14.30
2023-05-18T01:45:28.792Z,14.13
2023-05-18T01:46:37.721Z,13.90
2023-05-18T01:47:46.159Z,14.35
2023-05-18T01:48:55.062Z,13.48
2023-05-18T01:50:04.185Z,13.60
2023-05-18T01:51:09.881Z,14.68
2023-05-18T01:52:17.817Z,13.70
2023-05-18T01:53:26.016Z,13.93
2023-05-18T01:54:31.614Z,13.85
2023-05-18T01:55:37.603Z,14.60
2023-05-18T01:56:42.162Z,13.35
2023-05-18T01:57:51.865Z,13.03
2023-05-18T01:58:55.605Z,13.60
2023-05-18T02:00:00.362Z,13.90
2023-05-18T02:01:04.658Z,14.55
2023-05-18T02:02:09.318Z,13.35
2023-05-18T02:03:15.127Z,13.77
2023-05-18T02:04:19.003Z,13.30
2023-05-18T02:05:22.955Z,13.57
2023-05-18T02:06:26.766Z,13.98
2023-05-18T02:07:30.530Z,13.70
2023-05-18T02:08:34.286Z,14.40
2023-05-18T02:09:38.092Z,13.68
2023-05-18T02:10:41.753Z,13.90
2023-05-18T02:11:45.518Z,13.80
2023-05-18T02:12:50.994Z,12.82
2023-05-18T02:13:54.766Z,13.30
2023-05-18T02:14:58.641Z,13.80
2023-05-18T02:16:03.801Z,13.95
2023-05-18T02:17:07.717Z,13.93
2023-05-18T02:18:11.492Z,13.70
2023-05-18T02:19:15.766Z,13.40
2023-05-18T02:20:19.561Z,13.57
2023-05-18T02:21:23.243Z,14.05
2023-05-18T02:22:27.033Z,13.93
2023-05-18T02:23:30.822Z,13.80
2023-05-18T02:24:34.679Z,13.90
2023-05-18T02:25:38.442Z,13.32
2023-05-18T02:26:42.141Z,13.27
2023-05-18T02:27:45.896Z,14.20
2023-05-18T02:28:51.354Z,13.32
2023-05-18T02:29:55.386Z,12.53
2023-05-18T02:31:07.138Z,13.10
2023-05-18T02:32:10.995Z,13.02
2023-05-18T02:33:18.538Z,13.48
2023-05-18T02:34:22.330Z,13.65
2023-05-18T02:35:26.192Z,13.50
2023-05-18T02:36:29.890Z,13.35
2023-05-18T02:37:33.822Z,13.65
2023-05-18T02:38:41.412Z,13.48
2023-05-18T02:39:45.175Z,13.88
2023-05-18T02:40:49.110Z,13.57
2023-05-18T02:41:52.887Z,14.15
2023-05-18T02:42:56.587Z,13.93
2023-05-18T02:44:02.127Z,13.38
2023-05-18T02:45:06.682Z,13.23
2023-05-18T02:46:10.404Z,12.87
2023-05-18T02:47:14.055Z,13.38
2023-05-18T02:48:17.724Z,13.68
2023-05-18T02:49:21.467Z,13.73
2023-05-18T02:50:25.137Z,13.30
2023-05-18T02:51:28.828Z,13.73
2023-05-18T02:52:32.532Z,13.65
2023-05-18T02:53:36.490Z,13.68
2023-05-18T02:54:40.249Z,12.70
2023-05-18T02:55:43.957Z,13.43
2023-05-18T02:56:47.590Z,13.37
2023-05-18T02:57:51.214Z,13.63
2023-05-18T02:58:54.953Z,13.48
2023-05-18T03:00:00.389Z,13.73
2023-05-18T03:01:04.155Z,13.93
2023-05-18T03:02:07.980Z,14.10
2023-05-18T03:03:11.887Z,13.75
2023-05-18T03:04:15.650Z,13.60
2023-05-18T03:05:19.465Z,13.50
2023-05-18T03:06:23.168Z,13.52
2023-05-18T03:07:26.911Z,12.67
2023-05-18T03:08:30.711Z,13.50
2023-05-18T03:09:34.416Z,14.52
2023-05-18T03:10:38.196Z,13.77
2023-05-18T03:11:41.910Z,13.60
2023-05-18T03:12:45.667Z,13.70
2023-05-18T03:13:49.543Z,12.77
2023-05-18T03:14:53.174Z,13.48
2023-05-18T03:15:58.525Z,14.23
2023-05-18T03:17:02.232Z,14.05
2023-05-18T03:18:06.386Z,13.00
2023-05-18T03:19:10.590Z,13.32
2023-05-18T03:20:14.549Z,13.25
2023-05-18T03:21:18.250Z,13.10
2023-05-18T03:22:22.016Z,13.20
2023-05-18T03:23:25.733Z,14.33
2023-05-18T03:24:29.460Z,14.15
2023-05-18T03:25:33.233Z,13.40
2023-05-18T03:26:36.915Z,13.50
2023-05-18T03:27:40.539Z,13.30
2023-05-18T03:28:44.691Z,13.10
2023-05-18T03:29:48.351Z,13.85
2023-05-18T03:30:52.128Z,14.00
2023-05-18T03:31:57.520Z,13.93
2023-05-18T03:33:01.348Z,13.35
2023-05-18T03:34:05.083Z,13.80
2023-05-18T03:35:09.245Z,12.85
2023-05-18T03:36:13.038Z,14.15
2023-05-18T03:37:16.743Z,12.77
2023-05-18T03:38:20.469Z,13.38
2023-05-18T03:39:24.250Z,13.70
2023-05-18T03:40:27.984Z,13.25
2023-05-18T03:41:31.731Z,14.10
2023-05-18T03:42:35.513Z,14.45
2023-05-18T03:43:39.305Z,13.40
2023-05-18T03:44:43.161Z,14.67
2023-05-18T03:45:46.946Z,14.02
2023-05-18T03:46:50.694Z,13.88
2023-05-18T03:47:56.207Z,15.38
2023-05-18T03:49:00.125Z,13.10
2023-05-18T03:50:04.614Z,12.57
2023-05-18T03:51:08.406Z,15.60
2023-05-18T03:52:12.148Z,13.90
2023-05-18T03:53:16.318Z,15.30
2023-05-18T03:54:20.065Z,13.77
2023-05-18T03:55:24.049Z,13.77
2023-05-18T03:56:27.794Z,14.57
2023-05-18T03:57:31.988Z,14.60
2023-05-18T03:58:35.764Z,13.90
2023-05-18T03:59:39.470Z,14.35
2023-05-18T04:00:43.322Z,14.40
2023-05-18T04:01:47.228Z,14.00
2023-05-18T04:02:51.112Z,13.88
2023-05-18T04:03:56.826Z,13.98
2023-05-18T04:05:00.597Z,13.80
2023-05-18T04:06:04.387Z,14.53
2023-05-18T04:07:08.134Z,12.25
2023-05-18T04:08:11.884Z,13.25
2023-05-18T04:09:15.625Z,12.98
2023-05-18T04:10:19.506Z,13.93
2023-05-18T04:11:23.382Z,14.60
2023-05-18T04:12:27.190Z,13.90
2023-05-18T04:13:30.947Z,13.20
2023-05-18T04:14:34.754Z,14.55
2023-05-18T04:15:38.756Z,13.55
2023-05-18T04:16:42.851Z,13.60
2023-05-18T04:17:46.644Z,12.85
2023-05-18T04:18:50.837Z,13.40
2023-05-18T04:19:56.259Z,14.32
2023-05-18T04:21:00.157Z,13.65
2023-05-18T04:22:05.059Z,13.03
2023-05-18T04:23:08.774Z,14.07
2023-05-18T04:24:13.946Z,13.80
2023-05-18T04:25:17.944Z,14.15
2023-05-18T04:26:21.724Z,13.27
2023-05-18T04:27:25.480Z,13.63
2023-05-18T04:28:29.212Z,14.05
2023-05-18T04:29:32.950Z,14.43
2023-05-18T04:30:37.530Z,13.82
2023-05-18T04:31:42.037Z,14.55
2023-05-18T04:32:45.848Z,14.40
2023-05-18T04:33:49.664Z,14.13
2023-05-18T04:34:53.535Z,15.02
2023-05-18T04:35:58.963Z,15.13
2023-05-18T04:37:03.010Z,15.10
2023-05-18T04:38:06.697Z,13.57
2023-05-18T04:39:11.410Z,13.98
2023-05-18T04:40:15.169Z,14.40
2023-05-18T04:41:18.898Z,13.32
2023-05-18T04:42:22.704Z,14.77
2023-05-18T04:43:26.786Z,14.33
2023-05-18T04:44:31.008Z,13.65
2023-05-18T04:45:36.177Z,13.63
2023-05-18T04:46:40.025Z,14.02
2023-05-18T04:47:43.996Z,13.52
2023-05-18T04:48:47.799Z,14.43
2023-05-18T04:49:51.795Z,13.80
2023-05-18T04:50:57.168Z,13.93
2023-05-18T04:52:00.921Z,13.63
2023-05-18T04:53:05.963Z,13.95
2023-05-18T04:54:09.752Z,13.90
2023-05-18T04:55:13.585Z,13.02
2023-05-18T04:56:17.330Z,14.13
2023-05-18T04:57:20.996Z,13.43
2023-05-18T04:58:24.691Z,14.05
2023-05-18T04:59:28.489Z,14.20
2023-05-18T05:00:32.519Z,12.18
2023-05-18T05:01:36.319Z,13.05
2023-05-18T05:02:40.292Z,13.50
2023-05-18T05:03:44.694Z,13.43
2023-05-18T05:04:48.483Z,13.77
2023-05-18T05:05:52.295Z,14.15
2023-05-18T05:06:57.646Z,14.35
2023-05-18T05:08:01.633Z,14.10
2023-05-18T05:09:05.687Z,13.43
2023-05-18T05:10:11.058Z,13.37
2023-05-18T05:11:14.806Z,13.43
2023-05-18T05:12:18.574Z,12.80
2023-05-18T05:13:22.365Z,13.65
2023-05-18T05:14:26.089Z,13.32
2023-05-18T05:15:30.243Z,13.10
2023-05-18T05:16:34.345Z,12.30
2023-05-18T05:17:38.247Z,13.70
2023-05-18T05:18:42.113Z,13.63
2023-05-18T05:19:45.770Z,13.55
2023-05-18T05:20:51.083Z,13.83
2023-05-18T05:21:56.423Z,13.40
2023-05-18T05:23:00.197Z,13.65
2023-05-18T05:24:03.973Z,13.07
2023-05-18T05:25:08.430Z,14.95
2023-05-18T05:26:12.221Z,14.67
2023-05-18T05:27:16.001Z,14.07
2023-05-18T05:28:19.756Z,14.27
2023-05-18T05:29:23.385Z,13.23
2023-05-18T05:30:27.106Z,13.20
2023-05-18T05:31:30.907Z,14.13
2023-05-18T05:32:34.776Z,13.35
2023-05-18T05:33:38.598Z,13.40
2023-05-18T05:34:42.347Z,13.35
2023-05-18T05:35:46.064Z,14.00
2023-05-18T05:36:49.756Z,13.27
2023-05-18T05:37:55.112Z,13.40
2023-05-18T05:38:58.920Z,14.13
2023-05-18T05:40:02.747Z,14.60
2023-05-18T05:41:06.588Z,14.23
2023-05-18T05:42:10.435Z,13.37
2023-05-18T05:43:14.212Z,13.27
2023-05-18T05:44:17.962Z,13.75
2023-05-18T05:45:21.658Z,13.60
2023-05-18T05:46:25.955Z,13.13
2023-05-18T05:47:29.703Z,14.10
2023-05-18T05:48:33.491Z,13.70
2023-05-18T05:49:37.283Z,13.52
2023-05-18T05:50:41.048Z,14.43
2023-05-18T05:51:44.830Z,13.43
2023-05-18T05:52:48.544Z,12.87
2023-05-18T05:53:53.917Z,13.73
2023-05-18T05:54:57.729Z,13.95
2023-05-18T05:56:01.528Z,13.23
2023-05-18T05:57:05.525Z,12.90
2023-05-18T05:58:09.762Z,14.70
2023-05-18T05:59:13.517Z,13.43
2023-05-18T06:00:17.697Z,13.57
2023-05-18T06:01:21.401Z,12.75
2023-05-18T06:02:25.655Z,13.07
2023-05-18T06:03:32.440Z,13.87
2023-05-18T06:04:39.104Z,13.25
2023-05-18T06:05:44.783Z,13.50
2023-05-18T06:06:50.686Z,13.60
2023-05-18T06:07:56.014Z,12.95
2023-05-18T06:09:02.976Z,14.60
2023-05-18T06:10:08.961Z,13.32
2023-05-18T06:11:14.759Z,14.50
2023-05-18T06:12:20.119Z,13.13
2023-05-18T06:13:25.553Z,13.38
2023-05-18T06:14:30.919Z,14.93
2023-05-18T06:15:36.213Z,13.40
2023-05-18T06:16:41.616Z,13.40
2023-05-18T06:17:47.257Z,13.30
2023-05-18T06:18:52.726Z,13.38
2023-05-18T06:19:58.215Z,13.70
2023-05-18T06:21:03.648Z,14.15
2023-05-18T06:22:08.988Z,13.48
2023-05-18T06:23:14.285Z,13.38
2023-05-18T06:24:21.304Z,13.38
2023-05-18T06:25:26.927Z,13.40
2023-05-18T06:26:32.307Z,13.60
2023-05-18T06:27:37.631Z,13.27
2023-05-18T06:28:43.060Z,14.10
2023-05-18T06:29:48.468Z,13.98
2023-05-18T06:30:53.819Z,13.10
2023-05-18T06:31:59.816Z,13.25
2023-05-18T06:33:05.122Z,13.48
2023-05-18T06:34:10.603Z,13.13
2023-05-18T06:35:15.725Z,13.80
2023-05-18T06:36:21.305Z,14.13
2023-05-18T06:37:26.666Z,13.43
2023-05-18T06:38:31.821Z,13.95
2023-05-18T06:39:41.918Z,13.65
2023-05-18T06:40:47.381Z,13.32
2023-05-18T06:41:52.725Z,13.77
2023-05-18T06:42:58.105Z,13.00
2023-05-18T06:44:03.371Z,14.32
2023-05-18T06:45:09.889Z,12.68
2023-05-18T06:46:22.170Z,13.15
2023-05-18T06:47:27.577Z,14.33
2023-05-18T06:48:32.909Z,12.60
2023-05-18T06:49:38.106Z,13.35
2023-05-18T06:50:43.412Z,12.65
2023-05-18T06:51:48.599Z,13.05
2023-05-18T06:52:53.867Z,13.17
2023-05-18T06:53:59.230Z,12.40
2023-05-18T06:55:06.516Z,13.02
2023-05-18T06:56:11.766Z,13.18
2023-05-18T06:57:17.456Z,12.65
2023-05-18T06:58:23.422Z,11.60
2023-05-18T06:59:28.960Z,13.68
2023-05-18T07:00:34.265Z,13.60
2023-05-18T07:01:44.983Z,13.70
2023-05-18T07:02:49.113Z,12.93
2023-05-18T07:03:52.927Z,13.57
2023-05-18T07:04:56.645Z,13.57
2023-05-18T07:06:00.542Z,12.23
2023-05-18T07:07:04.290Z,13.40
2023-05-18T07:08:08.139Z,13.60
2023-05-18T07:09:11.992Z,13.80
2023-05-18T07:10:17.435Z,13.88
2023-05-18T07:11:21.171Z,12.90
2023-05-18T07:12:25.049Z,13.35
2023-05-18T07:13:28.823Z,12.75
2023-05-18T07:14:32.466Z,13.87
2023-05-18T07:15:36.230Z,14.20
2023-05-18T07:16:40.043Z,12.65
2023-05-18T07:17:44.785Z,12.90
2023-05-18T07:18:48.488Z,13.93
2023-05-18T07:19:52.238Z,13.63
2023-05-18T07:20:55.987Z,13.13
2023-05-18T07:21:59.754Z,13.00
2023-05-18T07:23:03.472Z,14.50
2023-05-18T07:24:07.719Z,13.75
2023-05-18T07:25:11.552Z,13.33
2023-05-18T07:26:17.008Z,12.95
2023-05-18T07:27:20.736Z,13.05
2023-05-18T07:28:24.427Z,12.70
2023-05-18T07:29:28.224Z,12.82
2023-05-18T07:30:32.042Z,13.33
2023-05-18T07:31:35.777Z,12.70
2023-05-18T07:32:39.564Z,13.80
2023-05-18T07:33:43.335Z,13.55
2023-05-18T07:34:47.097Z,13.32
2023-05-18T07:35:50.778Z,13.57
2023-05-18T07:36:54.669Z,14.25
2023-05-18T07:37:58.385Z,13.65
2023-05-18T07:39:02.063Z,12.85
2023-05-18T07:40:06.863Z,13.80
2023-05-18T07:41:10.687Z,13.93
2023-05-18T07:42:16.117Z,12.93
2023-05-18T07:43:19.852Z,14.45
2023-05-18T07:44:23.477Z,14.15
2023-05-18T07:45:27.160Z,14.10
2023-05-18T07:46:31.062Z,14.07
2023-05-18T07:47:35.008Z,13.20
2023-05-18T07:48:40.551Z,13.25
2023-05-18T07:49:44.794Z,14.50
2023-05-18T07:50:48.554Z,13.32
2023-05-18T07:51:52.685Z,14.43
2023-05-18T07:52:56.542Z,13.68
2023-05-18T07:54:00.243Z,13.85
2023-05-18T07:55:04.724Z,13.63
2023-05-18T07:56:09.217Z,14.35
2023-05-18T07:57:13.013Z,14.87
2023-05-18T07:58:18.390Z,15.30
2023-05-18T07:59:22.109Z,13.98
2023-05-18T08:00:25.926Z,14.48
2023-05-18T08:01:29.628Z,14.00
2023-05-18T08:02:34.029Z,13.67
2023-05-18T08:03:37.991Z,14.88
2023-05-18T08:04:41.698Z,13.80
2023-05-18T08:05:45.442Z,14.15
2023-05-18T08:06:49.169Z,14.25
2023-05-18T08:07:53.004Z,13.40
2023-05-18T08:08:56.662Z,13.68
2023-05-18T08:10:00.482Z,13.88
2023-05-18T08:11:04.337Z,13.60
2023-05-18T08:12:08.634Z,14.13
2023-05-18T08:13:12.391Z,13.57
2023-05-18T08:14:17.752Z,14.10
2023-05-18T08:15:21.448Z,13.88
2023-05-18T08:16:25.277Z,14.02
2023-05-18T08:17:29.078Z,13.75
2023-05-18T08:18:32.816Z,13.03
2023-05-18T08:19:36.603Z,14.05
2023-05-18T08:20:40.380Z,14.57
2023-05-18T08:21:44.184Z,13.10
2023-05-18T08:22:47.977Z,12.35
2023-05-18T08:23:51.642Z,14.37
2023-05-18T08:24:55.334Z,13.82
2023-05-18T08:25:59.030Z,13.10
2023-05-18T08:27:02.747Z,13.32
2023-05-18T08:28:06.519Z,13.93
2023-05-18T08:29:10.302Z,13.60
2023-05-18T08:30:16.558Z,13.52
2023-05-18T08:31:20.331Z,14.13
2023-05-18T08:32:24.231Z,13.25
2023-05-18T08:33:28.010Z,13.48
2023-05-18T08:34:31.745Z,13.00
2023-05-18T08:35:35.465Z,13.60
2023-05-18T08:36:39.195Z,12.98
2023-05-18T08:37:42.954Z,13.25
2023-05-18T08:38:46.680Z,13.13
2023-05-18T08:39:50.422Z,12.50
2023-05-18T08:41:00.159Z,12.43
2023-05-18T08:42:08.498Z,13.43
2023-05-18T08:43:17.811Z,13.82
2023-05-18T08:44:23.034Z,13.30
2023-05-18T08:45:34.038Z,12.37
2023-05-18T08:46:42.292Z,12.65
2023-05-18T08:47:46.301Z,12.50
2023-05-18T08:48:52.889Z,13.52
2023-05-18T08:49:59.315Z,12.85
2023-05-18T08:51:04.130Z,13.17
2023-05-18T08:52:09.940Z,13.30
2023-05-18T08:53:14.128Z,13.88
2023-05-18T08:54:21.845Z,13.68
2023-05-18T08:55:26.192Z,12.80
2023-05-18T08:56:33.295Z,13.70
2023-05-18T08:57:38.234Z,13.05
2023-05-18T08:58:48.760Z,13.30
2023-05-18T08:59:55.389Z,13.05
2023-05-18T09:01:01.338Z,12.70
2023-05-18T09:02:06.287Z,13.50
2023-05-18T09:03:10.346Z,14.60
2023-05-18T09:04:15.122Z,12.98
2023-05-18T09:05:21.172Z,12.68
2023-05-18T09:06:25.826Z,13.30
2023-05-18T09:07:30.138Z,13.33
2023-05-18T09:08:34.309Z,13.23
2023-05-18T09:09:38.853Z,13.18
2023-05-18T09:10:42.679Z,12.82
2023-05-18T09:11:51.804Z,12.38
2023-05-18T09:12:56.939Z,12.67
2023-05-18T09:14:01.536Z,13.27
2023-05-18T09:15:05.745Z,13.60
2023-05-18T09:16:11.190Z,12.95
2023-05-18T09:17:14.998Z,12.23
2023-05-18T09:18:19.466Z,12.80
2023-05-18T09:19:24.621Z,12.07
2023-05-18T09:20:29.952Z,13.00
2023-05-18T09:21:33.987Z,12.77
2023-05-18T09:22:38.012Z,13.00
2023-05-18T09:23:42.009Z,12.43
2023-05-18T09:24:46.092Z,13.30
2023-05-18T09:25:50.018Z,13.13
2023-05-18T09:26:54.015Z,11.70
2023-05-18T09:27:57.780Z,12.40
2023-05-18T09:29:01.605Z,13.10
2023-05-18T09:30:06.156Z,12.15
2023-05-18T09:31:17.412Z,13.23
2023-05-18T09:32:21.254Z,12.40
2023-05-18T09:33:25.004Z,12.40
2023-05-18T09:34:40.889Z,12.03
2023-05-18T09:35:46.209Z,12.48
2023-05-18T09:36:51.311Z,12.02
2023-05-18T09:37:55.000Z,12.50
2023-05-18T09:38:58.714Z,11.73
2023-05-18T09:40:03.841Z,12.27
2023-05-18T09:41:12.080Z,12.82
2023-05-18T09:42:15.757Z,12.48
2023-05-18T09:43:20.021Z,12.10
2023-05-18T09:44:32.770Z,12.20
2023-05-18T09:45:43.498Z,13.20
2023-05-18T09:46:48.900Z,12.38
2023-05-18T09:47:53.124Z,13.32
2023-05-18T09:48:56.923Z,11.32
2023-05-18T09:50:00.792Z,12.23
2023-05-18T09:51:06.613Z,11.83
2023-05-18T09:52:10.319Z,12.50
2023-05-18T09:53:15.256Z,12.10
2023-05-18T09:54:19.083Z,11.85
2023-05-18T09:55:22.905Z,12.77
2023-05-18T09:56:27.381Z,12.30
2023-05-18T09:57:31.128Z,12.70
2023-05-18T09:58:35.590Z,12.10
2023-05-18T09:59:39.485Z,11.57
2023-05-18T10:00:44.318Z,12.00
2023-05-18T10:01:59.593Z,11.33
2023-05-18T10:03:03.516Z,12.00
2023-05-18T10:04:07.498Z,11.60
2023-05-18T10:05:20.742Z,12.48
2023-05-18T10:06:28.292Z,11.85
2023-05-18T10:07:31.952Z,12.50
2023-05-18T10:08:35.971Z,12.10
2023-05-18T10:09:41.100Z,11.80
2023-05-18T10:10:47.546Z,12.23
2023-05-18T10:11:51.954Z,12.10
2023-05-18T10:12:57.194Z,11.93
2023-05-18T10:14:01.228Z,12.18
2023-05-18T10:15:05.259Z,11.98
2023-05-18T10:16:09.684Z,13.15
2023-05-18T10:17:17.315Z,13.27
2023-05-18T10:18:23.663Z,12.63
2023-05-18T10:19:27.922Z,11.90
2023-05-18T10:20:33.092Z,12.23
2023-05-18T10:21:39.691Z,11.70
2023-05-18T10:22:45.718Z,12.48
2023-05-18T10:23:51.415Z,12.60
2023-05-18T10:24:56.034Z,13.23
2023-05-18T10:26:00.000Z,12.10
2023-05-18T10:27:09.005Z,12.07
2023-05-18T10:28:15.188Z,11.80
2023-05-18T10:29:19.326Z,11.90
2023-05-18T10:30:23.625Z,12.90
2023-05-18T10:31:28.623Z,12.13
2023-05-18T10:32:36.958Z,12.25
2023-05-18T10:33:41.231Z,12.07
2023-05-18T10:34:45.912Z,12.23
2023-05-18T10:35:51.020Z,12.13
2023-05-18T10:36:55.659Z,12.20
2023-05-18T10:38:02.734Z,12.23
2023-05-18T10:39:07.347Z,12.55
2023-05-18T10:40:13.251Z,12.40
2023-05-18T10:41:19.440Z,12.82
2023-05-18T10:42:24.480Z,12.10
2023-05-18T10:43:29.291Z,12.25
2023-05-18T10:44:33.737Z,11.43
2023-05-18T10:45:39.218Z,12.27
2023-05-18T10:46:43.945Z,12.00
2023-05-18T10:47:51.491Z,11.80
2023-05-18T10:48:56.431Z,11.85
2023-05-18T10:50:02.432Z,12.05
2023-05-18T10:51:08.985Z,12.47
2023-05-18T10:52:13.998Z,12.68
2023-05-18T10:53:19.870Z,10.80
2023-05-18T10:54:23.763Z,11.77
2023-05-18T10:55:28.289Z,12.43
2023-05-18T10:56:32.141Z,11.97
2023-05-18T10:57:40.641Z,11.95
2023-05-18T10:58:44.927Z,11.85
2023-05-18T10:59:48.873Z,12.48
2023-05-18T11:00:56.967Z,13.07
2023-05-18T11:02:02.155Z,12.73
2023-05-18T11:03:11.827Z,12.80
2023-05-18T11:04:15.696Z,12.50
2023-05-18T11:05:25.848Z,12.07
2023-05-18T11:06:29.831Z,11.70
2023-05-18T11:07:33.677Z,12.40
2023-05-18T11:08:43.730Z,12.80
2023-05-18T11:09:49.524Z,12.68
2023-05-18T11:11:01.701Z,13.00
2023-05-18T11:12:13.167Z,13.70
2023-05-18T11:13:17.177Z,14.77
2023-05-18T11:14:27.515Z,14.18
2023-05-18T11:16:05.087Z,14.82
2023-05-18T11:17:20.119Z,15.68
2023-05-18T11:18:34.983Z,15.05
2023-05-18T11:19:38.883Z,15.33
2023-05-18T11:20:42.595Z,14.98
2023-05-18T11:21:54.139Z,13.95
2023-05-18T11:23:04.244Z,15.30
2023-05-18T11:24:25.810Z,15.52
2023-05-18T11:25:44.086Z,15.57
2023-05-18T11:26:49.104Z,15.95
2023-05-18T11:27:53.417Z,15.07
2023-05-18T11:28:59.474Z,15.80
2023-05-18T11:30:15.136Z,16.30
2023-05-18T11:31:19.879Z,15.70
2023-05-18T11:32:30.029Z,16.48
2023-05-18T11:33:36.400Z,16.13
2023-05-18T11:34:45.607Z,15.45
2023-05-18T11:36:13.188Z,15.80
2023-05-18T11:37:39.455Z,14.73
2023-05-18T11:38:54.080Z,15.23
2023-05-18T11:40:01.122Z,15.40
2023-05-18T11:41:06.945Z,14.75
2023-05-18T11:42:12.094Z,15.75
2023-05-18T11:43:25.438Z,15.27
2023-05-18T11:44:29.969Z,14.63
2023-05-18T11:45:35.351Z,15.32
2023-05-18T11:46:41.615Z,15.18
2023-05-18T11:47:45.379Z,14.82
2023-05-18T11:48:52.478Z,15.83
2023-05-18T11:49:56.346Z,14.90
2023-05-18T11:51:00.319Z,15.68
2023-05-18T11:52:06.592Z,14.60
2023-05-18T11:53:16.066Z,15.95
2023-05-18T11:54:19.926Z,15.50
2023-05-18T11:55:25.591Z,15.20
2023-05-18T11:56:32.783Z,14.85
2023-05-18T11:57:41.340Z,16.05
2023-05-18T11:58:45.104Z,16.15
2023-05-18T11:59:49.856Z,14.47
2023-05-18T12:00:54.352Z,15.02
2023-05-18T12:02:00.080Z,14.93
2023-05-18T12:03:04.985Z,15.00
2023-05-18T12:04:11.637Z,15.15
2023-05-18T12:05:16.331Z,14.90
2023-05-18T12:06:20.882Z,14.32
2023-05-18T12:07:25.122Z,14.93
2023-05-18T12:08:29.468Z,14.73
2023-05-18T12:09:33.588Z,14.75
2023-05-18T12:10:37.334Z,15.23
2023-05-18T12:11:41.711Z,16.02
2023-05-18T12:12:48.549Z,15.60
2023-05-18T12:13:53.230Z,15.82
2023-05-18T12:14:58.835Z,15.40
2023-05-18T12:16:02.701Z,15.90
2023-05-18T12:17:07.609Z,14.27
2023-05-18T12:18:12.151Z,15.35
2023-05-18T12:19:18.305Z,14.35
2023-05-18T12:20:23.174Z,16.13
2023-05-18T12:21:26.814Z,13.33
2023-05-18T12:22:30.553Z,13.32
2023-05-18T12:23:37.519Z,14.52
2023-05-18T12:24:42.032Z,14.35
2023-05-18T12:25:45.781Z,14.98
2023-05-18T12:26:49.627Z,13.67
2023-05-18T12:27:54.211Z,14.23
2023-05-18T12:28:58.013Z,13.48
2023-05-18T12:30:01.672Z,14.57
2023-05-18T12:31:05.473Z,15.38
2023-05-18T12:32:10.880Z,14.20
2023-05-18T12:33:14.693Z,14.55
2023-05-18T12:34:20.191Z,14.40
2023-05-18T12:35:24.307Z,15.40
2023-05-18T12:36:27.979Z,14.82
2023-05-18T12:37:44.071Z,15.30
2023-05-18T12:38:50.424Z,14.30
2023-05-18T12:39:54.460Z,14.02
2023-05-18T12:40:58.137Z,13.68
2023-05-18T12:42:15.269Z,14.23
2023-05-18T12:43:19.176Z,12.80
2023-05-18T12:44:23.343Z,14.05
2023-05-18T12:45:28.474Z,13.93
2023-05-18T12:46:32.446Z,14.55
2023-05-18T12:47:42.604Z,14.50
2023-05-18T12:48:48.115Z,14.07
2023-05-18T12:49:53.531Z,14.85
2023-05-18T12:50:57.262Z,14.43
2023-05-18T12:52:09.928Z,14.88
2023-05-18T12:53:14.101Z,14.10
2023-05-18T12:54:28.265Z,13.83
2023-05-18T12:55:32.815Z,13.85
2023-05-18T12:56:54.197Z,14.75
2023-05-18T12:58:02.251Z,14.15
2023-05-18T12:59:06.085Z,14.00
2023-05-18T13:00:13.070Z,13.43
2023-05-18T13:01:16.885Z,13.55
2023-05-18T13:02:32.216Z,14.32
2023-05-18T13:03:36.142Z,13.73
2023-05-18T13:04:39.979Z,12.70
2023-05-18T13:05:46.922Z,13.37
2023-05-18T13:06:50.758Z,11.95
2023-05-18T13:07:57.624Z,12.27
2023-05-18T13:09:01.319Z,12.75
2023-05-18T13:10:09.330Z,11.63
2023-05-18T13:11:15.274Z,12.10
2023-05-18T13:12:19.048Z,12.35
2023-05-18T13:13:22.992Z,12.15
2023-05-18T13:14:26.857Z,12.80
2023-05-18T13:15:34.897Z,13.10
2023-05-18T13:16:40.561Z,13.10
2023-05-18T13:17:57.242Z,12.50
2023-05-18T13:19:01.981Z,13.10
2023-05-18T13:20:12.978Z,13.40
2023-05-18T13:21:19.411Z,13.27
2023-05-18T13:22:23.071Z,14.20
2023-05-18T13:23:30.580Z,12.90
2023-05-18T13:24:34.298Z,13.60
2023-05-18T13:25:38.287Z,13.18
2023-05-18T13:26:42.122Z,12.32
2023-05-18T13:27:45.943Z,13.50
2023-05-18T13:28:51.833Z,12.95
2023-05-18T13:29:55.618Z,12.35
2023-05-18T13:30:59.256Z,13.02
2023-05-18T13:32:03.121Z,12.70
2023-05-18T13:33:07.223Z,11.93
2023-05-18T13:34:11.016Z,12.32
2023-05-18T13:35:15.026Z,12.70
2023-05-18T13:36:20.413Z,12.00
2023-05-18T13:37:24.185Z,11.30
2023-05-18T13:38:27.864Z,12.00
2023-05-18T13:39:31.630Z,11.63
2023-05-18T13:40:35.477Z,11.35
2023-05-18T13:41:39.277Z,10.73
2023-05-18T13:42:43.196Z,11.43
2023-05-18T13:43:46.927Z,11.10
2023-05-18T13:44:50.665Z,10.88
2023-05-18T13:45:54.479Z,11.38
2023-05-18T13:46:58.179Z,10.57
2023-05-18T13:48:01.984Z,12.13
2023-05-18T13:49:05.652Z,11.13
2023-05-18T13:50:10.765Z,11.50
2023-05-18T13:51:14.494Z,10.52
2023-05-18T13:52:19.903Z,10.93
2023-05-18T13:53:24.068Z,11.25
2023-05-18T13:54:27.759Z,11.47
2023-05-18T13:55:31.859Z,11.27
2023-05-18T13:56:35.733Z,11.05
2023-05-18T13:57:39.508Z,10.40
2023-05-18T13:58:43.187Z,11.20
2023-05-18T13:59:46.903Z,11.60